Terminal Aerodrome Forecast
Issued by NWS

Home | Current Version | Previous Version | Text Only | Print | Product List | Glossary On
Versions: 1 2 3 4 5 6 7 8 9 10 11 12 13 14
876
FTUS42 KTBW 251120
TAFRSW
TAF
KRSW 251120Z 2512/2612 09007KT P6SM SCT250
     FM251400 11012KT P6SM SCT040 BKN250
     FM252000 11009KT P6SM SCT050 BKN250
     FM260100 09005KT P6SM FEW050 BKN250=

USA.gov is the U.S. government's official web portal to all federal, state and local government web resources and services.